Time;durP1;ratioP1;P1;durP2;ratioP2;P2;SDS_P1;SDS_P2;PMS_P1;PMS_P2;Temp;Humidity;BMP_temperature;BMP_pressure;BME280_temperature;BME280_humidity;BME280_pressure;Samples;Min_cycle;Max_cycle;Signal;HPM_P1;HPM_P2
2023/01/27 00:01:15;;;;;;;11.37;8.93;;;;;;;;;;4994123;28;20285;-87
2023/01/27 00:03:41;;;;;;;9.50;8.33;;;;;;;;;;4987592;28;20236;-86
2023/01/27 00:06:10;;;;;;;8.77;7.97;;;;;;;;;;4982263;28;20229;-86
2023/01/27 00:08:36;;;;;;;10.33;8.63;;;;;;;;;;4967124;28;20237;-87
2023/01/27 00:13:48;;;;;;;8.83;7.93;;;;;;;;;;4996202;28;20259;-87
2023/01/27 00:16:13;;;;;;;8.60;7.47;;;;;;;;;;4996270;28;20214;-87
2023/01/27 00:18:39;;;;;;;9.30;8.40;;;;;;;;;;4997909;28;20646;-88
2023/01/27 00:26:35;;;;;;;10.27;8.53;;;;;;;;;;4995477;28;20225;-86
2023/01/27 00:29:01;;;;;;;9.00;8.03;;;;;;;;;;4960567;28;20277;-86
2023/01/27 00:34:11;;;;;;;8.67;7.83;;;;;;;;;;4997227;28;20233;-86
2023/01/27 00:36:38;;;;;;;8.63;7.77;;;;;;;;;;4993300;28;20248;-85
2023/01/27 00:39:07;;;;;;;8.00;7.17;;;;;;;;;;4967063;28;20225;-86
2023/01/27 00:41:33;;;;;;;10.00;8.27;;;;;;;;;;4952409;28;20225;-85
2023/01/27 00:43:58;;;;;;;8.53;7.73;;;;;;;;;;4983317;28;20252;-86
2023/01/27 00:46:24;;;;;;;8.47;7.57;;;;;;;;;;4950768;28;20217;-87
2023/01/27 00:48:54;;;;;;;7.93;7.23;;;;;;;;;;4978635;28;20285;-85
2023/01/27 00:51:20;;;;;;;9.77;7.37;;;;;;;;;;4970976;28;20248;-87
2023/01/27 00:53:48;;;;;;;8.37;7.50;;;;;;;;;;4974425;28;20307;-86
2023/01/27 00:56:15;;;;;;;8.17;7.23;;;;;;;;;;4994243;28;20289;-86
2023/01/27 00:58:44;;;;;;;7.50;6.80;;;;;;;;;;4963588;28;20705;-86
2023/01/27 01:01:13;;;;;;;7.03;6.43;;;;;;;;;;4991294;28;20221;-87
2023/01/27 01:03:38;;;;;;;7.60;6.80;;;;;;;;;;4973978;28;20240;-87
2023/01/27 01:06:08;;;;;;;7.73;7.03;;;;;;;;;;4972860;28;20213;-87
2023/01/27 01:08:36;;;;;;;6.93;5.97;;;;;;;;;;4966015;28;20774;-86
2023/01/27 01:11:05;;;;;;;6.37;5.87;;;;;;;;;;4967326;28;20221;-87
2023/01/27 01:13:33;;;;;;;6.10;5.60;;;;;;;;;;4973137;28;20259;-87
2023/01/27 01:16:14;;;;;;;7.17;6.47;;;;;;;;;;4950308;28;20304;-87
2023/01/27 01:18:40;;;;;;;7.30;6.53;;;;;;;;;;4971570;28;20233;-86
2023/01/27 01:21:05;;;;;;;6.80;6.10;;;;;;;;;;5007347;28;20229;-87
2023/01/27 01:23:34;;;;;;;7.80;6.00;;;;;;;;;;4961814;28;20308;-86
2023/01/27 01:25:59;;;;;;;6.20;5.70;;;;;;;;;;4962532;28;20232;-86
2023/01/27 01:28:25;;;;;;;7.13;6.17;;;;;;;;;;4977400;28;20239;-86
2023/01/27 01:30:55;;;;;;;6.70;6.00;;;;;;;;;;4965758;28;20221;-86
2023/01/27 01:33:21;;;;;;;6.47;5.80;;;;;;;;;;4981052;28;20229;-87
2023/01/27 01:35:48;;;;;;;6.60;6.00;;;;;;;;;;4987280;28;20232;-85
2023/01/27 01:38:16;;;;;;;6.30;5.70;;;;;;;;;;5003418;28;20311;-84
2023/01/27 01:40:43;;;;;;;5.60;5.20;;;;;;;;;;4982727;28;20264;-86
2023/01/27 01:43:15;;;;;;;5.27;4.77;;;;;;;;;;4970749;28;20220;-86
2023/01/27 01:45:52;;;;;;;5.67;5.07;;;;;;;;;;4959182;28;20226;-86
2023/01/27 01:48:21;;;;;;;5.40;4.90;;;;;;;;;;4971008;28;20308;-87
2023/01/27 01:51:10;;;;;;;7.20;5.30;;;;;;;;;;4962436;28;20233;-85
2023/01/27 01:54:01;;;;;;;4.93;4.50;;;;;;;;;;4976139;28;20288;-87
2023/01/27 01:56:43;;;;;;;5.20;4.80;;;;;;;;;;5000503;28;20232;-86
2023/01/27 01:59:21;;;;;;;4.67;4.27;;;;;;;;;;4957639;28;20217;-87
2023/01/27 02:01:50;;;;;;;4.53;4.13;;;;;;;;;;4973079;28;20213;-86
2023/01/27 02:04:18;;;;;;;4.10;3.70;;;;;;;;;;4961755;28;20225;-85
2023/01/27 02:06:53;;;;;;;3.93;3.63;;;;;;;;;;4980454;28;20229;-87
2023/01/27 02:09:22;;;;;;;3.70;3.40;;;;;;;;;;4963289;28;20728;-86
2023/01/27 02:11:50;;;;;;;4.37;4.00;;;;;;;;;;4955046;28;20234;-86
2023/01/27 02:14:23;;;;;;;3.83;3.57;;;;;;;;;;5003499;28;20229;-86
2023/01/27 02:16:51;;;;;;;4.10;3.80;;;;;;;;;;4970566;28;20229;-87
2023/01/27 02:19:39;;;;;;;3.50;3.30;;;;;;;;;;4959163;28;20245;-86
2023/01/27 02:22:08;;;;;;;3.67;3.40;;;;;;;;;;4974986;28;20627;-86
2023/01/27 02:24:39;;;;;;;3.83;3.53;;;;;;;;;;4981653;28;20256;-83
2023/01/27 02:27:04;;;;;;;3.63;3.33;;;;;;;;;;4977453;28;20221;-87
2023/01/27 02:29:30;;;;;;;3.60;3.37;;;;;;;;;;4989188;28;20244;-86
2023/01/27 02:31:58;;;;;;;2.80;2.60;;;;;;;;;;4958256;28;20218;-82
2023/01/27 02:34:25;;;;;;;3.00;2.80;;;;;;;;;;4967078;28;20224;-87
2023/01/27 02:36:55;;;;;;;3.57;3.27;;;;;;;;;;4957696;28;20245;-85
2023/01/27 02:39:26;;;;;;;3.40;3.20;;;;;;;;;;4976947;28;20222;-87
2023/01/27 02:41:53;;;;;;;3.40;3.10;;;;;;;;;;4987666;28;20275;-85
2023/01/27 02:44:19;;;;;;;3.73;3.53;;;;;;;;;;4977804;28;20971;-87
2023/01/27 02:46:45;;;;;;;3.77;3.47;;;;;;;;;;4949599;28;20221;-87
2023/01/27 02:49:16;;;;;;;3.50;3.20;;;;;;;;;;4966148;28;20221;-86
2023/01/27 02:51:43;;;;;;;3.63;3.33;;;;;;;;;;4978883;28;20292;-86
2023/01/27 02:54:11;;;;;;;3.83;3.50;;;;;;;;;;4988737;28;20225;-86
2023/01/27 02:56:40;;;;;;;3.67;3.47;;;;;;;;;;4953418;28;20220;-84
2023/01/27 02:59:06;;;;;;;4.00;3.70;;;;;;;;;;4975584;28;20226;-87
2023/01/27 03:01:38;;;;;;;3.97;3.67;;;;;;;;;;4949008;28;20222;-85
2023/01/27 03:04:10;;;;;;;3.93;3.63;;;;;;;;;;4994087;28;20308;-88
2023/01/27 03:06:39;;;;;;;3.87;3.57;;;;;;;;;;4957505;28;20216;-83
2023/01/27 03:09:07;;;;;;;4.00;3.70;;;;;;;;;;4980735;28;20236;-86
2023/01/27 03:14:21;;;;;;;4.17;3.87;;;;;;;;;;4996953;28;20234;-84
2023/01/27 03:19:33;;;;;;;3.87;3.57;;;;;;;;;;4995979;28;20221;-87
2023/01/27 03:22:04;;;;;;;3.83;3.60;;;;;;;;;;5000189;28;20706;-86
2023/01/27 03:24:32;;;;;;;4.40;4.10;;;;;;;;;;4975134;28;20252;-85
2023/01/27 03:27:03;;;;;;;4.23;3.93;;;;;;;;;;4959397;28;20221;-86
2023/01/27 03:29:56;;;;;;;4.17;3.90;;;;;;;;;;4958963;28;20234;-86
2023/01/27 03:32:28;;;;;;;4.33;4.07;;;;;;;;;;4992229;28;20299;-86
2023/01/27 03:35:37;;;;;;;4.23;3.83;;;;;;;;;;4994116;28;20698;-85
2023/01/27 03:46:24;;;;;;;4.50;4.10;;;;;;;;;;4975306;28;20263;-87
2023/01/27 03:48:51;;;;;;;4.63;4.33;;;;;;;;;;4972278;28;20286;-87
2023/01/27 03:51:18;;;;;;;4.37;4.07;;;;;;;;;;4970904;28;20230;-84
2023/01/27 03:53:48;;;;;;;4.03;3.83;;;;;;;;;;4957350;28;20233;-86
2023/01/27 03:56:17;;;;;;;4.70;4.40;;;;;;;;;;4969507;28;20319;-86
2023/01/27 03:58:42;;;;;;;4.87;4.47;;;;;;;;;;4949123;28;20309;-85
2023/01/27 04:01:21;;;;;;;4.87;4.47;;;;;;;;;;4954404;28;20235;-87
2023/01/27 04:09:45;;;;;;;4.33;4.03;;;;;;;;;;4951181;28;20340;-86
2023/01/27 04:12:26;;;;;;;4.87;4.57;;;;;;;;;;4962689;28;20223;-87
2023/01/27 04:14:52;;;;;;;4.33;4.03;;;;;;;;;;4967337;28;20225;-86
2023/01/27 04:17:22;;;;;;;4.43;4.07;;;;;;;;;;4995085;28;20264;-86
2023/01/27 04:19:52;;;;;;;4.60;4.30;;;;;;;;;;4954057;28;20222;-85
2023/01/27 04:22:18;;;;;;;5.07;4.67;;;;;;;;;;5016858;28;20260;-86
2023/01/27 04:24:43;;;;;;;4.70;4.40;;;;;;;;;;4952174;28;20573;-86
2023/01/27 04:27:19;;;;;;;4.37;4.07;;;;;;;;;;4946535;28;20710;-87
2023/01/27 04:29:46;;;;;;;4.60;4.20;;;;;;;;;;4975692;28;20245;-87
2023/01/27 04:32:16;;;;;;;4.83;4.43;;;;;;;;;;4999042;28;20217;-87
2023/01/27 04:34:44;;;;;;;4.67;4.37;;;;;;;;;;4944883;28;20317;-87
2023/01/27 04:37:10;;;;;;;5.13;4.63;;;;;;;;;;4995438;28;20226;-85
2023/01/27 04:39:36;;;;;;;4.90;4.60;;;;;;;;;;4977714;28;20226;-85
2023/01/27 04:42:04;;;;;;;4.90;4.60;;;;;;;;;;4978208;28;20301;-87
2023/01/27 04:44:34;;;;;;;5.77;5.27;;;;;;;;;;4990173;28;20252;-85
2023/01/27 04:47:00;;;;;;;4.90;4.50;;;;;;;;;;4977087;28;20333;-85
2023/01/27 04:49:27;;;;;;;4.70;4.33;;;;;;;;;;4960018;28;20551;-85
2023/01/27 04:51:54;;;;;;;4.93;4.13;;;;;;;;;;4958277;28;20240;-86
2023/01/27 04:54:19;;;;;;;5.00;4.60;;;;;;;;;;4972499;28;20223;-86
2023/01/27 04:57:00;;;;;;;5.17;4.67;;;;;;;;;;4980396;28;20217;-85
2023/01/27 04:59:28;;;;;;;6.37;4.47;;;;;;;;;;4984141;28;20214;-86
2023/01/27 05:01:54;;;;;;;4.67;4.27;;;;;;;;;;4978441;28;20618;-86
2023/01/27 05:04:21;;;;;;;4.30;4.00;;;;;;;;;;4987082;28;20229;-86
2023/01/27 05:06:47;;;;;;;5.50;4.33;;;;;;;;;;4972570;28;20209;-86
2023/01/27 05:09:18;;;;;;;4.37;4.07;;;;;;;;;;4980718;28;20819;-82
2023/01/27 05:11:48;;;;;;;3.57;3.37;;;;;;;;;;4970623;28;20225;-84
2023/01/27 05:14:16;;;;;;;4.17;3.77;;;;;;;;;;4999591;28;20229;-85
2023/01/27 05:16:44;;;;;;;3.80;3.17;;;;;;;;;;4961620;28;20225;-86
2023/01/27 05:19:12;;;;;;;4.67;3.47;;;;;;;;;;4981141;28;20221;-84
2023/01/27 05:21:40;;;;;;;2.97;2.77;;;;;;;;;;4977836;28;20239;-87
2023/01/27 05:24:05;;;;;;;3.03;2.83;;;;;;;;;;4980602;28;20227;-85
2023/01/27 05:26:36;;;;;;;3.57;2.90;;;;;;;;;;4989773;28;20241;-86
2023/01/27 05:29:04;;;;;;;2.70;2.50;;;;;;;;;;4974225;28;20249;-86
2023/01/27 05:31:30;;;;;;;3.57;2.70;;;;;;;;;;4974733;28;20228;-86
2023/01/27 05:33:57;;;;;;;2.80;2.60;;;;;;;;;;4955504;28;20252;-85
2023/01/27 05:36:23;;;;;;;3.17;2.87;;;;;;;;;;4990721;28;20225;-85
2023/01/27 05:38:49;;;;;;;3.40;2.60;;;;;;;;;;4991830;28;20221;-86
2023/01/27 05:41:17;;;;;;;3.50;3.20;;;;;;;;;;4980998;28;20277;-86
2023/01/27 05:43:52;;;;;;;2.83;2.63;;;;;;;;;;4992533;28;20217;-85
2023/01/27 05:46:19;;;;;;;3.37;3.07;;;;;;;;;;5021066;28;20220;-84
2023/01/27 05:48:51;;;;;;;3.27;3.00;;;;;;;;;;4978806;28;20217;-85
2023/01/27 05:51:21;;;;;;;4.43;2.73;;;;;;;;;;4952920;28;20244;-85
2023/01/27 05:53:47;;;;;;;3.83;2.43;;;;;;;;;;4972516;28;20240;-86
2023/01/27 05:56:16;;;;;;;2.70;2.50;;;;;;;;;;4983986;28;20233;-86
2023/01/27 05:58:42;;;;;;;2.93;2.50;;;;;;;;;;4972319;28;20232;-86
2023/01/27 06:01:11;;;;;;;2.63;2.43;;;;;;;;;;4978843;28;20512;-86
2023/01/27 06:03:37;;;;;;;2.87;2.20;;;;;;;;;;4999571;28;20237;-85
2023/01/27 06:06:05;;;;;;;2.60;2.40;;;;;;;;;;4968946;28;20229;-84
2023/01/27 06:08:35;;;;;;;2.97;2.60;;;;;;;;;;4980673;28;20244;-86
2023/01/27 06:11:01;;;;;;;2.73;2.53;;;;;;;;;;4971301;28;20787;-85
2023/01/27 06:13:30;;;;;;;2.77;2.40;;;;;;;;;;4984994;28;20260;-87
2023/01/27 06:15:58;;;;;;;2.57;2.37;;;;;;;;;;4979381;28;20535;-86
2023/01/27 06:18:23;;;;;;;2.53;2.33;;;;;;;;;;4977328;28;20221;-84
2023/01/27 06:20:49;;;;;;;2.37;2.17;;;;;;;;;;4992167;28;20221;-86
2023/01/27 06:23:17;;;;;;;4.30;2.00;;;;;;;;;;4972961;28;20228;-86
2023/01/27 06:25:44;;;;;;;2.50;2.30;;;;;;;;;;4995488;28;20229;-87
2023/01/27 06:28:14;;;;;;;2.40;2.20;;;;;;;;;;4980632;28;20229;-86
2023/01/27 06:30:40;;;;;;;3.37;2.20;;;;;;;;;;4951003;28;20256;-86
2023/01/27 06:33:08;;;;;;;2.53;2.10;;;;;;;;;;4983228;28;20213;-86
2023/01/27 06:35:37;;;;;;;2.07;1.97;;;;;;;;;;5003767;28;20221;-85
2023/01/27 06:38:03;;;;;;;3.83;2.60;;;;;;;;;;4971528;28;20229;-85
2023/01/27 06:40:29;;;;;;;3.17;2.97;;;;;;;;;;4959251;28;20260;-85
2023/01/27 06:42:58;;;;;;;2.90;2.70;;;;;;;;;;4981466;28;20276;-83
2023/01/27 06:45:23;;;;;;;3.10;2.87;;;;;;;;;;4975663;28;20233;-85
2023/01/27 06:47:56;;;;;;;3.10;2.90;;;;;;;;;;4977179;28;20598;-85
2023/01/27 06:50:24;;;;;;;2.80;2.60;;;;;;;;;;5000897;28;20226;-85
2023/01/27 06:52:50;;;;;;;2.43;2.33;;;;;;;;;;4970954;28;20233;-86
2023/01/27 06:55:16;;;;;;;2.70;2.50;;;;;;;;;;4990602;28;20232;-86
2023/01/27 06:57:42;;;;;;;3.07;2.40;;;;;;;;;;4988268;28;20249;-86
2023/01/27 07:00:11;;;;;;;2.97;1.93;;;;;;;;;;4978895;28;20241;-86
2023/01/27 07:02:37;;;;;;;2.50;2.30;;;;;;;;;;4993582;28;20284;-85
2023/01/27 07:05:03;;;;;;;2.30;2.20;;;;;;;;;;4953775;28;20285;-85
2023/01/27 07:07:28;;;;;;;2.33;2.23;;;;;;;;;;4969439;28;20287;-85
2023/01/27 07:09:56;;;;;;;2.43;2.30;;;;;;;;;;4985004;28;20622;-85
2023/01/27 07:12:22;;;;;;;3.03;2.40;;;;;;;;;;4985148;28;20253;-84
2023/01/27 07:14:47;;;;;;;2.80;2.60;;;;;;;;;;4988183;28;20251;-85
2023/01/27 07:17:15;;;;;;;4.93;2.90;;;;;;;;;;4970283;28;20221;-83
2023/01/27 07:19:43;;;;;;;2.93;2.40;;;;;;;;;;4967740;28;20288;-85
2023/01/27 07:22:08;;;;;;;2.83;2.60;;;;;;;;;;4968861;28;20217;-85
2023/01/27 07:24:36;;;;;;;3.00;2.70;;;;;;;;;;4994860;28;20336;-86
2023/01/27 07:27:02;;;;;;;2.93;2.73;;;;;;;;;;4990426;28;20641;-86
2023/01/27 07:29:27;;;;;;;2.73;2.07;;;;;;;;;;4980778;28;20325;-86
2023/01/27 07:31:55;;;;;;;2.33;2.13;;;;;;;;;;4980387;28;20264;-86
2023/01/27 07:34:21;;;;;;;2.30;2.10;;;;;;;;;;4988068;28;20225;-86
2023/01/27 07:36:46;;;;;;;2.33;2.10;;;;;;;;;;4998246;28;20218;-85
2023/01/27 07:39:12;;;;;;;2.57;2.37;;;;;;;;;;4946011;28;20285;-85
2023/01/27 07:41:37;;;;;;;2.10;2.00;;;;;;;;;;4990531;28;20225;-85
2023/01/27 07:44:03;;;;;;;4.00;2.20;;;;;;;;;;4985155;28;20229;-86
2023/01/27 07:46:34;;;;;;;3.43;2.30;;;;;;;;;;4956642;28;20674;-85
2023/01/27 07:49:02;;;;;;;2.53;2.17;;;;;;;;;;4965659;28;20237;-86
2023/01/27 07:51:30;;;;;;;2.33;1.80;;;;;;;;;;4985083;28;20229;-84
2023/01/27 07:53:58;;;;;;;2.40;2.10;;;;;;;;;;4985742;28;20279;-85
2023/01/27 07:56:27;;;;;;;2.27;1.97;;;;;;;;;;4985522;28;20286;-84
2023/01/27 07:58:55;;;;;;;2.90;2.33;;;;;;;;;;4964895;28;20241;-84
2023/01/27 08:01:21;;;;;;;2.03;1.83;;;;;;;;;;4985466;28;20304;-85
2023/01/27 08:03:46;;;;;;;2.20;2.00;;;;;;;;;;4970021;28;20584;-85
2023/01/27 08:06:18;;;;;;;2.03;1.87;;;;;;;;;;4985878;28;20252;-83
2023/01/27 08:08:44;;;;;;;1.80;1.70;;;;;;;;;;4988545;28;20222;-86
2023/01/27 08:11:18;;;;;;;2.07;1.97;;;;;;;;;;4980397;28;20216;-84
2023/01/27 08:13:43;;;;;;;3.03;2.30;;;;;;;;;;4983050;28;20233;-85
2023/01/27 08:16:13;;;;;;;2.20;2.00;;;;;;;;;;5000082;28;20248;-84
2023/01/27 08:18:40;;;;;;;2.17;1.90;;;;;;;;;;4986981;28;20229;-83
2023/01/27 08:21:08;;;;;;;1.73;1.63;;;;;;;;;;4980824;28;20248;-85
2023/01/27 08:23:33;;;;;;;2.10;1.53;;;;;;;;;;4951873;28;20230;-85
2023/01/27 08:26:02;;;;;;;3.33;2.00;;;;;;;;;;4987608;28;20228;-86
2023/01/27 08:28:29;;;;;;;1.53;1.43;;;;;;;;;;5019720;28;20240;-85
2023/01/27 08:31:01;;;;;;;1.90;1.70;;;;;;;;;;4948064;28;20229;-86
2023/01/27 08:33:29;;;;;;;2.00;1.80;;;;;;;;;;4972587;28;20267;-79
2023/01/27 08:36:04;;;;;;;1.80;1.70;;;;;;;;;;4978911;28;20221;-81
2023/01/27 08:38:29;;;;;;;3.23;2.60;;;;;;;;;;4954992;28;20707;-83
2023/01/27 08:40:55;;;;;;;2.00;1.90;;;;;;;;;;4964251;28;20231;-81
2023/01/27 08:43:23;;;;;;;2.20;1.70;;;;;;;;;;4997645;28;20325;-82
2023/01/27 08:45:51;;;;;;;1.87;1.77;;;;;;;;;;4990295;28;20229;-82
2023/01/27 08:48:16;;;;;;;1.60;1.50;;;;;;;;;;4993993;28;20229;-81
2023/01/27 08:50:42;;;;;;;5.00;1.80;;;;;;;;;;4991545;28;20287;-81
2023/01/27 08:53:10;;;;;;;3.10;1.87;;;;;;;;;;4963024;28;20226;-81
2023/01/27 08:55:35;;;;;;;1.60;1.50;;;;;;;;;;4979212;28;20690;-81
2023/01/27 08:58:01;;;;;;;1.40;1.30;;;;;;;;;;4997378;28;20222;-81
2023/01/27 09:00:26;;;;;;;1.63;1.50;;;;;;;;;;5008990;28;20279;-81
2023/01/27 09:02:54;;;;;;;1.23;1.10;;;;;;;;;;4956253;28;20233;-80
2023/01/27 09:05:21;;;;;;;1.40;1.30;;;;;;;;;;4979851;28;20210;-80
2023/01/27 09:07:51;;;;;;;1.30;1.20;;;;;;;;;;4972246;28;20222;-81
2023/01/27 09:10:17;;;;;;;1.73;1.10;;;;;;;;;;4971759;28;20366;-81
2023/01/27 09:12:43;;;;;;;0.90;0.90;;;;;;;;;;4974523;28;20269;-80
2023/01/27 09:15:12;;;;;;;1.20;1.10;;;;;;;;;;4987897;28;20265;-80
2023/01/27 09:17:37;;;;;;;0.97;0.93;;;;;;;;;;4978050;28;20225;-81
2023/01/27 09:20:03;;;;;;;1.10;1.00;;;;;;;;;;4971991;28;20236;-79
2023/01/27 09:22:29;;;;;;;0.80;0.80;;;;;;;;;;4985462;28;20221;-81
2023/01/27 09:24:54;;;;;;;1.57;1.10;;;;;;;;;;4973816;28;20233;-81
2023/01/27 09:27:20;;;;;;;1.20;1.10;;;;;;;;;;5020733;28;20221;-80
2023/01/27 09:29:45;;;;;;;1.67;1.50;;;;;;;;;;4984154;28;20229;-81
2023/01/27 09:32:13;;;;;;;1.10;1.00;;;;;;;;;;4970049;28;20205;-80
2023/01/27 09:34:39;;;;;;;1.73;1.30;;;;;;;;;;4971504;28;20233;-81
2023/01/27 09:37:07;;;;;;;1.30;1.20;;;;;;;;;;4977561;28;20232;-82
2023/01/27 09:39:38;;;;;;;1.30;1.20;;;;;;;;;;4983815;28;20328;-81
2023/01/27 09:42:31;;;;;;;1.97;1.30;;;;;;;;;;4978818;28;20252;-81
2023/01/27 09:45:09;;;;;;;1.60;1.33;;;;;;;;;;5002848;28;20316;-81
2023/01/27 09:47:41;;;;;;;1.57;1.47;;;;;;;;;;5018750;28;20236;-82
2023/01/27 09:50:25;;;;;;;2.03;1.37;;;;;;;;;;5001524;28;20233;-81
2023/01/27 09:53:06;;;;;;;1.77;1.10;;;;;;;;;;5001567;28;20246;-81
2023/01/27 09:55:53;;;;;;;3.17;2.10;;;;;;;;;;5001207;28;20229;-81
2023/01/27 09:58:26;;;;;;;1.00;0.90;;;;;;;;;;4996919;28;20233;-82
2023/01/27 10:01:03;;;;;;;2.03;1.20;;;;;;;;;;5003280;28;20225;-82
2023/01/27 10:04:13;;;;;;;1.53;1.00;;;;;;;;;;4999886;28;20226;-81
2023/01/27 10:06:54;;;;;;;2.10;1.90;;;;;;;;;;4992319;28;20233;-81
2023/01/27 10:10:01;;;;;;;2.10;1.90;;;;;;;;;;5031712;28;20252;-83
2023/01/27 10:12:38;;;;;;;7.97;7.13;;;;;;;;;;4999252;28;20248;-82
2023/01/27 10:15:51;;;;;;;2.37;1.33;;;;;;;;;;4994515;28;20224;-82
2023/01/27 10:18:33;;;;;;;1.30;1.20;;;;;;;;;;4961334;28;20218;-82
2023/01/27 10:21:02;;;;;;;2.47;1.77;;;;;;;;;;4988152;28;20234;-82
2023/01/27 10:23:39;;;;;;;1.73;1.40;;;;;;;;;;4982759;28;20233;-82
2023/01/27 10:26:22;;;;;;;1.77;1.67;;;;;;;;;;4997003;28;20213;-82
2023/01/27 10:28:50;;;;;;;1.43;1.03;;;;;;;;;;4995923;28;20248;-83
2023/01/27 10:31:29;;;;;;;1.50;1.40;;;;;;;;;;4978548;28;20217;-82
2023/01/27 10:33:57;;;;;;;1.43;1.23;;;;;;;;;;5031039;28;20229;-82
2023/01/27 10:36:46;;;;;;;1.40;1.30;;;;;;;;;;4972732;28;20228;-83
2023/01/27 10:39:31;;;;;;;2.40;2.23;;;;;;;;;;4997209;28;20229;-83
2023/01/27 10:42:14;;;;;;;5.77;5.20;;;;;;;;;;5004313;28;20889;-82
2023/01/27 10:45:00;;;;;;;1.13;1.03;;;;;;;;;;5010694;28;20237;-81
2023/01/27 10:47:43;;;;;;;3.20;2.60;;;;;;;;;;4994575;28;20244;-82
2023/01/27 10:50:14;;;;;;;1.53;1.17;;;;;;;;;;4982480;28;20221;-83
2023/01/27 10:52:55;;;;;;;1.23;1.13;;;;;;;;;;4976445;28;20232;-82
2023/01/27 10:55:21;;;;;;;2.97;2.07;;;;;;;;;;4996625;28;20225;-82
2023/01/27 10:57:52;;;;;;;6.80;4.77;;;;;;;;;;4979947;28;20234;-83
2023/01/27 11:00:38;;;;;;;3.07;1.60;;;;;;;;;;4972079;28;20225;-83
2023/01/27 11:03:42;;;;;;;2.43;1.57;;;;;;;;;;4972790;28;20253;-81
2023/01/27 11:06:11;;;;;;;2.17;1.90;;;;;;;;;;4998620;28;20209;-84
2023/01/27 11:08:38;;;;;;;4.60;2.50;;;;;;;;;;4968061;28;20387;-80
2023/01/27 11:13:51;;;;;;;7.90;3.73;;;;;;;;;;4964799;28;20272;-82
2023/01/27 11:16:18;;;;;;;2.43;2.03;;;;;;;;;;4987271;28;20208;-81
2023/01/27 11:18:53;;;;;;;5.40;3.70;;;;;;;;;;4975277;28;20229;-80
2023/01/27 11:21:20;;;;;;;1.80;1.70;;;;;;;;;;4984858;28;20217;-78
2023/01/27 11:23:54;;;;;;;1.70;1.60;;;;;;;;;;4966296;28;20704;-79
2023/01/27 11:26:19;;;;;;;3.20;1.80;;;;;;;;;;4977332;28;20252;-79
2023/01/27 11:28:52;;;;;;;1.97;1.60;;;;;;;;;;4993170;28;20229;-79
2023/01/27 11:31:51;;;;;;;2.17;1.87;;;;;;;;;;4976561;28;20245;-80
2023/01/27 11:34:40;;;;;;;1.70;1.40;;;;;;;;;;4976087;28;20225;-82
2023/01/27 11:37:19;;;;;;;2.10;1.63;;;;;;;;;;4966400;28;20263;-80
2023/01/27 11:39:47;;;;;;;3.63;2.10;;;;;;;;;;4965776;28;20233;-79
2023/01/27 11:42:13;;;;;;;1.87;1.60;;;;;;;;;;4963845;28;20221;-79
2023/01/27 11:44:39;;;;;;;2.27;1.77;;;;;;;;;;4968098;28;20218;-81
2023/01/27 11:47:05;;;;;;;4.40;2.00;;;;;;;;;;4959155;28;20221;-80
2023/01/27 11:49:36;;;;;;;2.30;1.90;;;;;;;;;;4959711;28;20241;-79
2023/01/27 11:52:11;;;;;;;3.20;2.47;;;;;;;;;;4976111;28;20312;-78
2023/01/27 11:54:53;;;;;;;2.40;2.00;;;;;;;;;;4994663;28;20690;-78
2023/01/27 11:57:23;;;;;;;4.00;2.37;;;;;;;;;;4998055;28;20308;-77
2023/01/27 11:59:54;;;;;;;2.60;2.40;;;;;;;;;;4972201;28;20224;-78
2023/01/27 12:02:43;;;;;;;2.80;2.10;;;;;;;;;;4980527;28;20725;-79
2023/01/27 12:05:20;;;;;;;4.60;2.47;;;;;;;;;;4970227;28;20225;-79
2023/01/27 12:07:51;;;;;;;2.37;2.17;;;;;;;;;;4971770;28;20236;-79
2023/01/27 12:10:32;;;;;;;2.43;1.90;;;;;;;;;;5012305;28;20287;-77
2023/01/27 12:13:29;;;;;;;2.57;2.13;;;;;;;;;;4978031;28;20237;-79
2023/01/27 12:15:58;;;;;;;2.07;1.47;;;;;;;;;;4988467;28;20371;-78
2023/01/27 12:18:24;;;;;;;3.73;2.10;;;;;;;;;;4977245;28;20218;-79
2023/01/27 12:21:00;;;;;;;2.40;1.90;;;;;;;;;;4963343;28;20236;-77
2023/01/27 12:23:32;;;;;;;2.40;1.80;;;;;;;;;;4977362;28;20228;-78
2023/01/27 12:26:03;;;;;;;3.10;2.00;;;;;;;;;;4967785;28;20226;-79
2023/01/27 12:28:29;;;;;;;2.27;2.07;;;;;;;;;;4970776;28;20329;-79
2023/01/27 12:31:04;;;;;;;2.30;1.77;;;;;;;;;;4949757;28;20652;-78
2023/01/27 12:33:31;;;;;;;1.77;1.40;;;;;;;;;;4961526;28;20247;-77
2023/01/27 12:35:59;;;;;;;2.37;1.63;;;;;;;;;;4983020;28;20244;-79
2023/01/27 12:38:30;;;;;;;3.17;1.60;;;;;;;;;;4966177;28;20754;-79
2023/01/27 12:41:08;;;;;;;1.93;1.60;;;;;;;;;;4954879;28;20256;-79
2023/01/27 12:43:53;;;;;;;1.50;1.40;;;;;;;;;;4971097;28;21090;-79
2023/01/27 12:46:25;;;;;;;1.60;1.50;;;;;;;;;;4993260;28;20223;-79
2023/01/27 12:49:08;;;;;;;5.17;1.40;;;;;;;;;;4991631;28;20264;-78
2023/01/27 12:51:44;;;;;;;2.03;1.20;;;;;;;;;;4978386;28;20225;-79
2023/01/27 12:54:28;;;;;;;1.03;0.93;;;;;;;;;;5008684;28;20249;-80
2023/01/27 12:57:07;;;;;;;2.47;1.40;;;;;;;;;;4970087;28;20606;-79
2023/01/27 12:59:32;;;;;;;1.30;1.00;;;;;;;;;;4948136;28;20232;-80
2023/01/27 13:02:05;;;;;;;2.17;1.70;;;;;;;;;;4969668;28;20233;-79
2023/01/27 13:04:31;;;;;;;2.17;1.37;;;;;;;;;;4976680;28;20369;-80
2023/01/27 13:07:02;;;;;;;1.20;1.10;;;;;;;;;;4964086;28;20272;-82
2023/01/27 13:09:32;;;;;;;5.03;0.90;;;;;;;;;;4992621;28;20301;-80
2023/01/27 13:12:00;;;;;;;3.93;1.00;;;;;;;;;;5007049;28;20256;-80
2023/01/27 13:14:29;;;;;;;2.03;1.10;;;;;;;;;;4950620;28;20237;-78
2023/01/27 13:16:57;;;;;;;3.80;3.50;;;;;;;;;;4989192;28;20583;-79
2023/01/27 13:19:41;;;;;;;1.20;1.10;;;;;;;;;;4963432;28;20276;-79
2023/01/27 13:22:10;;;;;;;2.30;1.30;;;;;;;;;;4967545;28;20213;-79
2023/01/27 13:24:39;;;;;;;1.30;1.20;;;;;;;;;;4982387;28;20324;-80
2023/01/27 13:27:08;;;;;;;2.13;0.90;;;;;;;;;;4966112;28;20224;-79
2023/01/27 13:29:33;;;;;;;2.53;0.90;;;;;;;;;;4964306;28;20244;-80
2023/01/27 13:32:26;;;;;;;1.33;1.20;;;;;;;;;;4966794;28;20233;-80
2023/01/27 13:35:07;;;;;;;1.53;1.40;;;;;;;;;;4976372;28;20606;-80
2023/01/27 13:37:36;;;;;;;1.30;1.00;;;;;;;;;;4988287;28;20237;-78
2023/01/27 13:40:20;;;;;;;2.00;1.10;;;;;;;;;;4969558;28;20221;-81
2023/01/27 13:43:14;;;;;;;2.40;1.30;;;;;;;;;;5014816;28;20229;-80
2023/01/27 13:45:44;;;;;;;3.53;1.60;;;;;;;;;;5001787;28;20240;-83
2023/01/27 13:48:19;;;;;;;4.60;1.50;;;;;;;;;;4987718;28;20320;-83
2023/01/27 13:51:02;;;;;;;1.23;1.13;;;;;;;;;;5005157;28;20653;-84
2023/01/27 13:53:31;;;;;;;1.90;1.07;;;;;;;;;;5018542;28;20236;-83
2023/01/27 13:56:31;;;;;;;2.20;1.30;;;;;;;;;;4982594;28;20221;-82
2023/01/27 13:59:06;;;;;;;1.40;1.00;;;;;;;;;;4998888;28;20221;-81
2023/01/27 14:01:53;;;;;;;1.10;1.10;;;;;;;;;;5011521;28;20225;-84
2023/01/27 14:04:34;;;;;;;1.20;0.90;;;;;;;;;;4999612;28;20225;-84
2023/01/27 14:07:15;;;;;;;1.40;0.80;;;;;;;;;;5000307;28;20694;-84
2023/01/27 14:09:46;;;;;;;1.47;1.07;;;;;;;;;;5014555;28;20249;-84
2023/01/27 14:12:19;;;;;;;0.87;0.83;;;;;;;;;;5003121;28;20284;-81
2023/01/27 14:15:09;;;;;;;1.67;1.30;;;;;;;;;;4976643;28;20233;-83
2023/01/27 14:17:39;;;;;;;1.23;0.80;;;;;;;;;;5014587;28;20999;-83
2023/01/27 14:20:17;;;;;;;0.90;0.70;;;;;;;;;;4996510;28;20276;-83
2023/01/27 14:22:55;;;;;;;1.83;0.80;;;;;;;;;;4996764;28;20229;-82
2023/01/27 14:25:29;;;;;;;1.97;1.00;;;;;;;;;;4998701;28;20225;-83
2023/01/27 14:28:24;;;;;;;1.60;1.00;;;;;;;;;;5016220;28;20229;-83
2023/01/27 14:31:12;;;;;;;1.27;1.00;;;;;;;;;;5014532;28;20915;-83
2023/01/27 14:33:50;;;;;;;1.10;1.00;;;;;;;;;;4998870;28;20271;-83
2023/01/27 14:36:20;;;;;;;2.00;0.93;;;;;;;;;;5001028;28;20221;-81
2023/01/27 14:39:15;;;;;;;3.00;0.90;;;;;;;;;;4989907;28;20218;-85
2023/01/27 14:41:50;;;;;;;1.00;0.90;;;;;;;;;;4983971;28;20256;-82
2023/01/27 14:44:40;;;;;;;0.80;0.80;;;;;;;;;;5002714;28;20251;-85
2023/01/27 14:47:11;;;;;;;1.33;0.73;;;;;;;;;;4988771;28;20218;-83
2023/01/27 14:49:55;;;;;;;1.40;0.90;;;;;;;;;;5020201;28;20245;-83
2023/01/27 14:52:33;;;;;;;1.53;1.10;;;;;;;;;;5013524;28;20228;-84
2023/01/27 14:55:53;;;;;;;2.60;0.90;;;;;;;;;;4995255;28;20312;-84
2023/01/27 14:59:03;;;;;;;1.37;0.70;;;;;;;;;;4971656;28;20722;-83
2023/01/27 15:01:31;;;;;;;0.70;0.70;;;;;;;;;;4959139;28;20713;-83
2023/01/27 15:04:00;;;;;;;1.63;1.20;;;;;;;;;;4993537;28;20572;-82
2023/01/27 15:06:48;;;;;;;1.90;0.90;;;;;;;;;;4976402;28;20225;-84
2023/01/27 15:09:25;;;;;;;2.30;0.90;;;;;;;;;;4976325;28;20222;-83
2023/01/27 15:12:25;;;;;;;0.80;0.80;;;;;;;;;;5018282;28;20235;-82
2023/01/27 15:15:16;;;;;;;1.50;0.70;;;;;;;;;;5015572;28;20640;-83
2023/01/27 15:17:54;;;;;;;2.27;1.10;;;;;;;;;;5000575;28;20229;-83
2023/01/27 15:20:52;;;;;;;2.10;0.60;;;;;;;;;;5008491;28;20221;-84
2023/01/27 15:23:55;;;;;;;1.23;0.70;;;;;;;;;;4997301;28;20221;-82
2023/01/27 15:26:22;;;;;;;0.70;0.70;;;;;;;;;;4991828;28;20248;-84
2023/01/27 15:28:48;;;;;;;0.80;0.80;;;;;;;;;;4951781;28;20265;-82
2023/01/27 15:31:16;;;;;;;0.70;0.70;;;;;;;;;;4998697;28;20235;-84
2023/01/27 15:34:03;;;;;;;0.80;0.80;;;;;;;;;;4998322;28;20241;-84
2023/01/27 15:36:30;;;;;;;2.30;0.83;;;;;;;;;;5016872;28;20283;-85
2023/01/27 15:39:08;;;;;;;1.00;0.50;;;;;;;;;;4982460;28;20217;-84
2023/01/27 15:41:56;;;;;;;1.23;0.70;;;;;;;;;;5009674;28;20260;-84
2023/01/27 15:44:22;;;;;;;0.70;0.70;;;;;;;;;;4984024;28;20234;-84
2023/01/27 15:46:48;;;;;;;1.20;0.73;;;;;;;;;;5019608;28;20233;-84